Stamps, Arkansas
Current Conditions -  °F | °C
As of 2:06 AM on Monday 24 Nov 2014 (Local Time) from KTXK Reporting Station
Overcast Overcast  
Wind Chill: 51°   Ceiling: 3100
Heat Index: 51°   Visibility: 10mi
Dew Point: 41°   Wind: 17mph
Humidity: 68%   Direction: 290°WNW
Pressure: 29.74"   Gusts: 23mph
Location:  33.37°N, 93.5°W
Report Text: KTXK 240806Z AUTO 29015G20KT 10SM OVC031 11/05 A2974 RMK AO2 T01060050 $
Loading
Personal Weather Stations






























Interactive Weather Map New forecast layout! Learn more

10-Day Weather Forecast

Advertisements
Track Severe Weather on mobile